createdAt,value
2023-04-09T00:00:27.506Z,97.78
2023-04-09T00:01:27.534Z,98.05
2023-04-09T00:02:27.580Z,98.46
2023-04-09T00:03:27.603Z,98.36
2023-04-09T00:04:27.500Z,98.46
2023-04-09T00:05:27.467Z,98.41
2023-04-09T00:06:27.435Z,98.30
2023-04-09T00:07:27.440Z,98.20
2023-04-09T00:08:27.451Z,97.99
2023-04-09T00:09:27.403Z,97.89
2023-04-09T00:10:27.394Z,97.78
2023-04-09T00:11:27.399Z,97.68
2023-04-09T00:12:27.370Z,97.78
2023-04-09T00:13:38.684Z,97.68
2023-04-09T00:14:28.351Z,97.68
2023-04-09T00:15:31.189Z,97.68
2023-04-09T00:16:27.397Z,97.68
2023-04-09T00:17:27.343Z,97.58
2023-04-09T00:18:27.310Z,97.58
2023-04-09T00:19:27.304Z,97.68
2023-04-09T00:20:27.310Z,97.99
2023-04-09T00:21:27.287Z,98.10
2023-04-09T00:22:27.320Z,97.99
2023-04-09T00:23:27.277Z,97.89
2023-04-09T00:24:27.251Z,97.68
2023-04-09T00:25:27.237Z,97.52
2023-04-09T00:26:27.251Z,97.63
2023-04-09T00:27:27.280Z,97.42
2023-04-09T00:28:27.206Z,97.42
2023-04-09T00:29:27.191Z,97.42
2023-04-09T00:30:27.192Z,97.52
2023-04-09T00:31:27.189Z,97.42
2023-04-09T00:32:27.175Z,97.63
2023-04-09T00:33:27.221Z,97.83
2023-04-09T00:34:27.142Z,97.94
2023-04-09T00:35:27.271Z,97.83
2023-04-09T00:36:27.193Z,97.73
2023-04-09T00:37:27.101Z,98.03
2023-04-09T00:38:27.106Z,98.14
2023-04-09T00:39:27.099Z,98.35
2023-04-09T00:40:27.099Z,98.35
2023-04-09T00:41:27.078Z,98.24
2023-04-09T00:42:27.058Z,98.14
2023-04-09T00:43:27.096Z,98.08
2023-04-09T00:44:27.043Z,98.24
2023-04-09T00:45:27.073Z,98.14
2023-04-09T00:46:27.012Z,98.55
2023-04-09T00:47:27.027Z,99.07
2023-04-09T00:48:27.005Z,99.27
2023-04-09T00:49:26.980Z,99.27
2023-04-09T00:50:26.991Z,99.38
2023-04-09T00:51:27.003Z,99.48
2023-04-09T00:52:26.958Z,99.38
2023-04-09T00:53:27.124Z,99.38
2023-04-09T00:54:26.936Z,99.48
2023-04-09T00:55:26.909Z,99.48
2023-04-09T00:56:26.917Z,99.58
2023-04-09T00:57:26.882Z,99.48
2023-04-09T00:58:26.882Z,99.38
2023-04-09T00:59:26.919Z,99.58
2023-04-09T01:00:26.856Z,99.48
2023-04-09T01:01:26.933Z,99.38
2023-04-09T01:02:26.958Z,99.38
2023-04-09T01:03:26.930Z,99.27
2023-04-09T01:04:26.816Z,99.27
2023-04-09T01:05:26.800Z,99.38
2023-04-09T01:06:26.800Z,99.48
2023-04-09T01:07:26.778Z,99.48
2023-04-09T01:08:26.771Z,99.48
2023-04-09T01:09:26.755Z,99.58
2023-04-09T01:10:26.751Z,99.58
2023-04-09T01:11:26.820Z,99.58
2023-04-09T01:12:26.752Z,99.58
2023-04-09T01:13:26.713Z,99.48
2023-04-09T01:14:26.708Z,99.48
2023-04-09T01:15:26.690Z,99.38
2023-04-09T01:16:26.736Z,99.32
2023-04-09T01:17:26.710Z,99.22
2023-04-09T01:18:26.665Z,99.01
2023-04-09T01:19:26.649Z,99.01
2023-04-09T01:20:26.640Z,98.91
2023-04-09T01:21:26.631Z,99.11
2023-04-09T01:22:26.620Z,99.11
2023-04-09T01:23:26.609Z,99.22
2023-04-09T01:24:26.601Z,99.22
2023-04-09T01:25:26.597Z,99.11
2023-04-09T01:26:26.608Z,98.91
2023-04-09T01:27:26.555Z,98.80
2023-04-09T01:28:26.559Z,98.91
2023-04-09T01:29:26.541Z,98.91
2023-04-09T01:30:26.595Z,99.01
2023-04-09T01:31:26.540Z,99.01
2023-04-09T01:32:26.541Z,99.11
2023-04-09T01:33:26.518Z,99.22
2023-04-09T01:34:26.485Z,99.32
2023-04-09T01:35:26.503Z,99.43
2023-04-09T01:36:26.519Z,99.43
2023-04-09T01:37:26.476Z,99.52
2023-04-09T01:38:26.489Z,99.43
2023-04-09T01:39:26.442Z,99.22
2023-04-09T01:40:26.426Z,99.22
2023-04-09T01:41:26.431Z,99.11
2023-04-09T01:42:26.404Z,99.11
2023-04-09T01:43:26.411Z,99.11
2023-04-09T01:44:26.384Z,99.32
2023-04-09T01:45:26.389Z,99.43
2023-04-09T01:46:26.444Z,99.43
2023-04-09T01:47:26.386Z,99.32
2023-04-09T01:48:26.332Z,99.32
2023-04-09T01:49:26.359Z,99.32
2023-04-09T01:50:26.316Z,99.16
2023-04-09T01:51:26.322Z,99.06
2023-04-09T01:52:26.297Z,98.85
2023-04-09T01:53:26.295Z,98.65
2023-04-09T01:54:26.273Z,98.54
2023-04-09T01:55:26.268Z,98.33
2023-04-09T01:56:26.340Z,98.13
2023-04-09T01:57:26.268Z,98.02
2023-04-09T01:58:26.293Z,97.92
2023-04-09T01:59:26.247Z,97.82
2023-04-09T02:00:26.215Z,97.72
2023-04-09T02:01:26.296Z,97.61
2023-04-09T02:02:26.252Z,97.55
2023-04-09T02:03:26.267Z,97.55
2023-04-09T02:04:26.171Z,97.66
2023-04-09T02:05:26.160Z,97.76
2023-04-09T02:06:26.289Z,97.66
2023-04-09T02:07:26.417Z,97.66
2023-04-09T02:08:26.127Z,97.66
2023-04-09T02:09:26.140Z,97.55
2023-04-09T02:10:26.157Z,97.66
2023-04-09T02:11:26.107Z,97.86
2023-04-09T02:12:26.082Z,97.97
2023-04-09T02:13:26.085Z,97.97
2023-04-09T02:14:26.068Z,97.97
2023-04-09T02:15:26.056Z,98.90
2023-04-09T02:16:26.068Z,99.06
2023-04-09T02:17:26.123Z,99.47
2023-04-09T02:18:26.023Z,99.57
2023-04-09T02:19:26.054Z,99.57
2023-04-09T02:20:26.050Z,99.47
2023-04-09T02:21:26.035Z,99.31
2023-04-09T02:22:25.977Z,99.21
2023-04-09T02:23:25.967Z,99.21
2023-04-09T02:24:25.956Z,99.00
2023-04-09T02:25:25.950Z,98.90
2023-04-09T02:26:26.083Z,98.90
2023-04-09T02:27:25.914Z,98.90
2023-04-09T02:28:25.955Z,99.00
2023-04-09T02:29:25.910Z,99.00
2023-04-09T02:30:25.888Z,98.90
2023-04-09T02:31:25.961Z,98.90
2023-04-09T02:32:25.932Z,98.90
2023-04-09T02:33:25.859Z,98.79
2023-04-09T02:34:25.847Z,98.69
2023-04-09T02:35:25.835Z,98.58
2023-04-09T02:36:25.901Z,98.58
2023-04-09T02:37:25.818Z,98.58
2023-04-09T02:38:25.856Z,98.74
2023-04-09T02:39:25.789Z,98.53
2023-04-09T02:40:25.781Z,98.43
2023-04-09T02:41:25.781Z,98.84
2023-04-09T02:42:25.761Z,99.25
2023-04-09T02:43:25.752Z,99.31
2023-04-09T02:44:25.741Z,99.31
2023-04-09T02:45:25.721Z,99.35
2023-04-09T02:46:25.838Z,99.25
2023-04-09T02:47:25.735Z,99.15
2023-04-09T02:48:25.701Z,98.94
2023-04-09T02:49:25.689Z,98.94
2023-04-09T02:50:27.312Z,98.84
2023-04-09T02:51:25.667Z,98.84
2023-04-09T02:52:25.664Z,98.94
2023-04-09T02:53:25.661Z,98.84
2023-04-09T02:54:25.677Z,98.63
2023-04-09T02:55:25.742Z,98.43
2023-04-09T02:56:25.637Z,98.74
2023-04-09T02:57:25.662Z,98.74
2023-04-09T02:58:25.606Z,98.84
2023-04-09T02:59:25.685Z,98.74
2023-04-09T03:00:25.593Z,98.74
2023-04-09T03:01:25.606Z,98.63
2023-04-09T03:02:25.751Z,98.63
2023-04-09T03:03:25.768Z,98.53
2023-04-09T03:04:25.547Z,98.53
2023-04-09T03:05:25.826Z,98.32
2023-04-09T03:06:25.523Z,98.32
2023-04-09T03:07:25.549Z,98.43
2023-04-09T03:08:25.485Z,98.32
2023-04-09T03:09:25.469Z,98.22
2023-04-09T03:10:25.618Z,98.27
2023-04-09T03:11:25.493Z,98.27
2023-04-09T03:12:25.501Z,98.37
2023-04-09T03:13:25.434Z,98.37
2023-04-09T03:14:25.424Z,98.37
2023-04-09T03:15:25.430Z,98.27
2023-04-09T03:16:25.446Z,98.16
2023-04-09T03:17:25.388Z,98.27
2023-04-09T03:18:25.410Z,98.47
2023-04-09T03:19:25.370Z,98.37
2023-04-09T03:20:25.403Z,98.78
2023-04-09T03:21:25.337Z,98.78
2023-04-09T03:22:25.389Z,98.78
2023-04-09T03:23:25.360Z,98.88
2023-04-09T03:24:25.309Z,99.09
2023-04-09T03:25:25.308Z,99.19
2023-04-09T03:26:25.302Z,99.25
2023-04-09T03:27:25.285Z,99.35
2023-04-09T03:28:25.308Z,99.25
2023-04-09T03:29:25.255Z,99.25
2023-04-09T03:30:25.263Z,99.19
2023-04-09T03:31:25.280Z,99.09
2023-04-09T03:32:25.269Z,99.19
2023-04-09T03:33:25.250Z,99.25
2023-04-09T03:34:25.209Z,99.25
2023-04-09T03:35:25.278Z,99.25
2023-04-09T03:36:25.193Z,99.25
2023-04-09T03:37:25.173Z,99.35
2023-04-09T03:38:25.176Z,99.35
2023-04-09T03:39:25.157Z,99.46
2023-04-09T03:40:25.141Z,99.35
2023-04-09T03:41:25.139Z,99.25
2023-04-09T03:42:25.138Z,99.25
2023-04-09T03:43:25.114Z,99.25
2023-04-09T03:44:25.120Z,99.15
2023-04-09T03:45:25.089Z,99.15
2023-04-09T03:46:25.133Z,99.15
2023-04-09T03:47:25.085Z,99.25
2023-04-09T03:48:25.058Z,99.15
2023-04-09T03:49:25.056Z,99.05
2023-04-09T03:50:25.050Z,99.05
2023-04-09T03:51:25.028Z,99.05
2023-04-09T03:52:25.046Z,99.15
2023-04-09T03:53:25.002Z,99.15
2023-04-09T03:54:25.002Z,99.25
2023-04-09T03:55:25.030Z,99.15
2023-04-09T03:56:24.970Z,99.15
2023-04-09T03:57:24.968Z,99.15
2023-04-09T03:58:24.988Z,99.15
2023-04-09T03:59:24.947Z,99.05
2023-04-09T04:00:24.975Z,99.05
2023-04-09T04:01:24.920Z,99.15
2023-04-09T04:02:25.033Z,99.05
2023-04-09T04:03:25.018Z,99.05
2023-04-09T04:04:24.994Z,99.05
2023-04-09T04:05:24.880Z,99.05
2023-04-09T04:06:24.856Z,98.94
2023-04-09T04:07:24.880Z,98.84
2023-04-09T04:08:24.856Z,98.84
2023-04-09T04:09:24.833Z,98.84
2023-04-09T04:10:24.849Z,98.63
2023-04-09T04:11:24.831Z,98.74
2023-04-09T04:12:24.815Z,98.74
2023-04-09T04:13:24.892Z,98.74
2023-04-09T04:14:24.771Z,98.63
2023-04-09T04:15:24.781Z,98.63
2023-04-09T04:16:24.777Z,98.53
2023-04-09T04:17:24.794Z,98.43
2023-04-09T04:18:24.733Z,98.32
2023-04-09T04:19:24.718Z,98.43
2023-04-09T04:20:24.729Z,98.63
2023-04-09T04:21:24.692Z,98.74
2023-04-09T04:22:26.247Z,98.74
2023-04-09T04:23:24.673Z,98.84
2023-04-09T04:24:24.662Z,99.05
2023-04-09T04:25:24.656Z,99.05
2023-04-09T04:26:24.651Z,99.05
2023-04-09T04:27:24.629Z,99.05
2023-04-09T04:28:24.628Z,98.94
2023-04-09T04:29:24.614Z,98.74
2023-04-09T04:30:24.608Z,98.63
2023-04-09T04:31:24.640Z,98.63
2023-04-09T04:32:24.591Z,98.63
2023-04-09T04:33:24.568Z,98.53
2023-04-09T04:34:24.609Z,98.53
2023-04-09T04:35:24.683Z,98.43
2023-04-09T04:36:24.540Z,98.43
2023-04-09T04:37:24.526Z,98.53
2023-04-09T04:38:24.517Z,98.53
2023-04-09T04:39:24.500Z,98.53
2023-04-09T04:40:24.500Z,98.63
2023-04-09T04:41:24.515Z,98.53
2023-04-09T04:42:24.602Z,98.43
2023-04-09T04:43:24.481Z,98.22
2023-04-09T04:44:24.478Z,98.32
2023-04-09T04:45:24.442Z,98.22
2023-04-09T04:46:24.449Z,98.11
2023-04-09T04:47:24.438Z,98.11
2023-04-09T04:48:24.403Z,98.11
2023-04-09T04:49:24.397Z,98.22
2023-04-09T04:50:24.392Z,98.22
2023-04-09T04:51:24.379Z,98.22
2023-04-09T04:52:24.364Z,98.11
2023-04-09T04:53:24.361Z,98.01
2023-04-09T04:54:24.373Z,98.01
2023-04-09T04:55:24.358Z,97.91
2023-04-09T04:56:24.371Z,97.96
2023-04-09T04:57:24.321Z,97.96
2023-04-09T04:58:24.344Z,97.96
2023-04-09T04:59:24.357Z,97.96
2023-04-09T05:00:24.280Z,98.06
2023-04-09T05:01:24.308Z,97.91
2023-04-09T05:02:24.430Z,98.01
2023-04-09T05:03:27.003Z,97.91
2023-04-09T05:04:24.230Z,97.85
2023-04-09T05:05:24.288Z,97.75
2023-04-09T05:06:24.214Z,97.75
2023-04-09T05:07:24.233Z,97.85
2023-04-09T05:08:24.200Z,97.81
2023-04-09T05:09:24.172Z,97.85
2023-04-09T05:10:24.179Z,97.81
2023-04-09T05:11:24.174Z,97.81
2023-04-09T05:12:24.144Z,97.71
2023-04-09T05:13:24.194Z,97.60
2023-04-09T05:14:24.181Z,97.64
2023-04-09T05:15:24.159Z,97.64
2023-04-09T05:16:24.137Z,97.71
2023-04-09T05:17:24.152Z,97.71
2023-04-09T05:18:24.117Z,97.60
2023-04-09T05:19:24.087Z,97.50
2023-04-09T05:20:24.152Z,97.50
2023-04-09T05:21:24.063Z,97.50
2023-04-09T05:22:24.047Z,97.44
2023-04-09T05:23:24.030Z,97.39
2023-04-09T05:24:24.036Z,97.39
2023-04-09T05:25:24.035Z,97.29
2023-04-09T05:26:24.048Z,97.29
2023-04-09T05:27:23.984Z,97.19
2023-04-09T05:28:23.973Z,97.08
2023-04-09T05:29:23.956Z,97.08
2023-04-09T05:30:23.966Z,96.88
2023-04-09T05:31:23.993Z,96.88
2023-04-09T05:32:23.929Z,96.98
2023-04-09T05:33:23.976Z,96.88
2023-04-09T05:34:23.933Z,96.56
2023-04-09T05:35:23.928Z,96.15
2023-04-09T05:36:23.906Z,95.84
2023-04-09T05:37:23.878Z,95.64
2023-04-09T05:38:23.877Z,95.43
2023-04-09T05:39:23.847Z,95.43
2023-04-09T05:40:23.923Z,95.43
2023-04-09T05:41:23.895Z,95.43
2023-04-09T05:42:23.824Z,95.43
2023-04-09T05:43:23.810Z,95.53
2023-04-09T05:44:23.816Z,95.53
2023-04-09T05:45:23.799Z,95.43
2023-04-09T05:46:23.797Z,95.12
2023-04-09T05:47:23.861Z,94.97
2023-04-09T05:48:23.771Z,94.87
2023-04-09T05:49:23.747Z,94.87
2023-04-09T05:50:23.770Z,94.87
2023-04-09T05:51:23.740Z,94.56
2023-04-09T05:52:23.783Z,94.56
2023-04-09T05:53:23.725Z,94.56
2023-04-09T05:54:23.704Z,94.46
2023-04-09T05:55:23.711Z,94.35
2023-04-09T05:56:23.681Z,94.46
2023-04-09T05:57:23.740Z,94.25
2023-04-09T05:58:23.720Z,94.04
2023-04-09T05:59:23.768Z,94.21
2023-04-09T06:00:23.645Z,94.00
2023-04-09T06:01:23.745Z,93.79
2023-04-09T06:02:23.737Z,93.79
2023-04-09T06:03:23.809Z,94.21
2023-04-09T06:04:23.793Z,94.10
2023-04-09T06:05:23.689Z,93.90
2023-04-09T06:06:23.564Z,93.79
2023-04-09T06:07:23.659Z,93.69
2023-04-09T06:08:23.549Z,93.38
2023-04-09T06:09:23.583Z,92.97
2023-04-09T06:10:23.540Z,92.86
2023-04-09T06:11:23.515Z,92.66
2023-04-09T06:12:23.510Z,92.76
2023-04-09T06:13:23.490Z,92.61
2023-04-09T06:14:23.530Z,92.61
2023-04-09T06:15:23.500Z,92.41
2023-04-09T06:16:23.529Z,92.41
2023-04-09T06:17:23.479Z,92.21
2023-04-09T06:18:23.437Z,92.10
2023-04-09T06:19:23.456Z,92.10
2023-04-09T06:20:23.434Z,92.00
2023-04-09T06:21:23.400Z,91.38
2023-04-09T06:22:23.612Z,90.97
2023-04-09T06:23:23.403Z,90.76
2023-04-09T06:24:23.383Z,90.35
2023-04-09T06:25:23.413Z,90.35
2023-04-09T06:26:23.353Z,90.31
2023-04-09T06:27:23.336Z,90.00
2023-04-09T06:28:23.332Z,90.20
2023-04-09T06:29:24.437Z,90.31
2023-04-09T06:30:23.339Z,89.69
2023-04-09T06:31:23.323Z,89.38
2023-04-09T06:32:23.297Z,89.69
2023-04-09T06:33:23.305Z,89.34
2023-04-09T06:34:23.275Z,88.72
2023-04-09T06:35:23.284Z,88.62
2023-04-09T06:36:23.293Z,88.51
2023-04-09T06:37:23.228Z,88.62
2023-04-09T06:38:23.497Z,88.72
2023-04-09T06:39:23.222Z,88.89
2023-04-09T06:40:23.461Z,88.06
2023-04-09T06:41:23.206Z,87.81
2023-04-09T06:42:23.189Z,88.12
2023-04-09T06:43:23.164Z,87.30
2023-04-09T06:44:23.167Z,86.47
2023-04-09T06:45:23.164Z,86.99
2023-04-09T06:46:23.181Z,86.85
2023-04-09T06:47:23.130Z,86.95
2023-04-09T06:48:23.185Z,85.82
2023-04-09T06:49:23.105Z,85.26
2023-04-09T06:50:23.131Z,85.36
2023-04-09T06:51:23.119Z,85.16
2023-04-09T06:52:23.297Z,84.71
2023-04-09T06:53:23.115Z,84.61
2023-04-09T06:54:23.055Z,84.61
2023-04-09T06:55:23.047Z,84.09
2023-04-09T06:56:23.027Z,83.95
2023-04-09T06:57:23.008Z,83.54
2023-04-09T06:58:23.017Z,84.26
2023-04-09T06:59:22.994Z,83.23
2023-04-09T07:00:23.055Z,83.70
2023-04-09T07:01:22.985Z,83.29
2023-04-09T07:02:23.082Z,82.47
2023-04-09T07:03:23.065Z,82.99
2023-04-09T07:04:23.036Z,82.37
2023-04-09T07:05:23.022Z,81.55
2023-04-09T07:06:22.925Z,81.71
2023-04-09T07:07:25.377Z,81.10
2023-04-09T07:08:22.967Z,80.49
2023-04-09T07:09:22.919Z,80.49
2023-04-09T07:10:22.899Z,81.00
2023-04-09T07:11:22.861Z,81.20
2023-04-09T07:12:22.872Z,81.92
2023-04-09T07:13:22.835Z,82.13
2023-04-09T07:14:22.848Z,82.23
2023-04-09T07:15:22.872Z,81.37
2023-04-09T07:16:23.675Z,80.96
2023-04-09T07:17:22.915Z,80.14
2023-04-09T07:18:22.803Z,80.35
2023-04-09T07:19:22.782Z,80.04
2023-04-09T07:20:22.798Z,80.92
2023-04-09T07:21:22.753Z,79.49
2023-04-09T07:22:22.745Z,79.14
2023-04-09T07:23:22.962Z,78.49
2023-04-09T07:24:22.734Z,77.77
2023-04-09T07:25:22.732Z,76.40
2023-04-09T07:26:22.700Z,76.44
2023-04-09T07:27:22.684Z,76.65
2023-04-09T07:28:22.678Z,77.98
2023-04-09T07:29:22.691Z,78.59
2023-04-09T07:30:22.660Z,77.16
2023-04-09T07:31:22.754Z,76.75
2023-04-09T07:32:22.681Z,77.16
2023-04-09T07:33:22.614Z,78.08
2023-04-09T07:34:22.632Z,76.81
2023-04-09T07:35:22.668Z,76.61
2023-04-09T07:36:22.602Z,76.37
2023-04-09T07:37:22.580Z,74.84
2023-04-09T07:38:22.573Z,76.03
2023-04-09T07:39:22.550Z,75.59
2023-04-09T07:40:22.581Z,74.26
2023-04-09T07:41:22.542Z,74.22
2023-04-09T07:42:22.573Z,73.71
2023-04-09T07:43:22.654Z,73.30
2023-04-09T07:44:22.533Z,73.81
2023-04-09T07:45:22.491Z,73.61
2023-04-09T07:46:22.516Z,72.99
2023-04-09T07:47:22.570Z,72.28
2023-04-09T07:48:22.460Z,72.38
2023-04-09T07:49:22.440Z,72.75
2023-04-09T07:50:22.637Z,71.94
2023-04-09T07:51:22.439Z,72.65
2023-04-09T07:52:22.431Z,72.52
2023-04-09T07:53:22.400Z,73.23
2023-04-09T07:54:22.487Z,71.59
2023-04-09T07:55:22.438Z,71.29
2023-04-09T07:56:22.377Z,71.97
2023-04-09T07:57:22.355Z,72.55
2023-04-09T07:58:22.426Z,69.69
2023-04-09T07:59:22.379Z,70.81
2023-04-09T08:00:22.366Z,69.29
2023-04-09T08:01:22.366Z,69.15
2023-04-09T08:02:22.418Z,68.33
2023-04-09T08:03:22.535Z,68.98
2023-04-09T08:04:22.422Z,70.07
2023-04-09T08:05:22.329Z,69.93
2023-04-09T08:06:22.312Z,68.30
2023-04-09T08:07:22.414Z,67.38
2023-04-09T08:08:22.242Z,67.79
2023-04-09T08:09:22.240Z,68.17
2023-04-09T08:10:22.241Z,66.54
2023-04-09T08:11:22.226Z,66.33
2023-04-09T08:12:22.271Z,66.91
2023-04-09T08:13:22.195Z,64.78
2023-04-09T08:14:22.201Z,64.17
2023-04-09T08:15:22.201Z,65.28
2023-04-09T08:16:22.191Z,64.67
2023-04-09T08:17:22.373Z,65.59
2023-04-09T08:18:22.143Z,64.37
2023-04-09T08:19:22.126Z,65.69
2023-04-09T08:20:22.128Z,65.86
2023-04-09T08:21:22.129Z,65.25
2023-04-09T08:22:22.107Z,63.53
2023-04-09T08:23:22.109Z,62.78
2023-04-09T08:24:22.088Z,63.29
2023-04-09T08:25:22.084Z,62.48
2023-04-09T08:26:22.063Z,61.66
2023-04-09T08:27:22.110Z,63.59
2023-04-09T08:28:22.077Z,62.48
2023-04-09T08:29:22.024Z,61.76
2023-04-09T08:30:22.027Z,60.82
2023-04-09T08:31:22.033Z,60.82
2023-04-09T08:32:22.035Z,58.38
2023-04-09T08:33:21.993Z,59.67
2023-04-09T08:34:21.984Z,59.37
2023-04-09T08:35:21.952Z,59.77
2023-04-09T08:36:22.069Z,60.99
2023-04-09T08:37:21.961Z,59.75
2023-04-09T08:38:22.050Z,59.84
2023-04-09T08:39:21.920Z,57.95
2023-04-09T08:40:21.953Z,58.04
2023-04-09T08:41:21.908Z,59.16
2023-04-09T08:42:21.890Z,58.02
2023-04-09T08:43:22.196Z,58.22
2023-04-09T08:44:21.940Z,58.42
2023-04-09T08:45:21.874Z,58.94
2023-04-09T08:46:21.892Z,59.64
2023-04-09T08:47:21.888Z,59.62
2023-04-09T08:48:21.976Z,58.91
2023-04-09T08:49:21.799Z,58.29
2023-04-09T08:50:21.860Z,59.62
2023-04-09T08:51:21.827Z,59.92
2023-04-09T08:52:21.809Z,59.39
2023-04-09T08:53:21.799Z,59.39
2023-04-09T08:54:21.756Z,57.12
2023-04-09T08:55:21.760Z,56.39
2023-04-09T08:56:21.733Z,56.01
2023-04-09T08:57:21.714Z,54.28
2023-04-09T08:58:21.721Z,53.78
2023-04-09T08:59:21.713Z,53.17
2023-04-09T09:00:21.751Z,53.47
2023-04-09T09:01:21.739Z,53.37
2023-04-09T09:02:21.782Z,53.06
2023-04-09T09:03:21.810Z,53.37
2023-04-09T09:04:21.792Z,53.27
2023-04-09T09:05:21.654Z,52.36
2023-04-09T09:06:21.678Z,51.85
2023-04-09T09:07:21.634Z,50.84
2023-04-09T09:08:21.617Z,52.58
2023-04-09T09:09:21.650Z,53.37
2023-04-09T09:10:21.616Z,52.05
2023-04-09T09:11:21.571Z,51.54
2023-04-09T09:12:21.554Z,51.98
2023-04-09T09:13:21.539Z,54.21
2023-04-09T09:14:21.566Z,52.76
2023-04-09T09:15:21.553Z,51.95
2023-04-09T09:16:21.583Z,51.57
2023-04-09T09:17:21.563Z,52.38
2023-04-09T09:18:21.520Z,51.79
2023-04-09T09:19:21.498Z,52.48
2023-04-09T09:20:21.528Z,51.06
2023-04-09T09:21:21.602Z,51.09
2023-04-09T09:22:21.502Z,52.58
2023-04-09T09:23:21.445Z,51.57
2023-04-09T09:24:21.426Z,52.58
2023-04-09T09:25:21.445Z,51.98
2023-04-09T09:26:21.422Z,53.70
2023-04-09T09:27:21.397Z,52.76
2023-04-09T09:28:21.391Z,53.75
2023-04-09T09:29:21.453Z,52.23
2023-04-09T09:30:21.383Z,52.33
2023-04-09T09:31:21.412Z,52.84
2023-04-09T09:32:21.448Z,53.55
2023-04-09T09:33:21.338Z,52.33
2023-04-09T09:34:21.327Z,53.55
2023-04-09T09:35:21.329Z,52.53
2023-04-09T09:36:21.358Z,53.65
2023-04-09T09:37:21.316Z,52.92
2023-04-09T09:38:21.288Z,51.50
2023-04-09T09:39:21.271Z,55.15
2023-04-09T09:40:21.326Z,50.79
2023-04-09T09:41:21.306Z,50.68
2023-04-09T09:42:21.243Z,50.91
2023-04-09T09:43:21.226Z,50.81
2023-04-09T09:44:21.257Z,52.33
2023-04-09T09:45:21.252Z,53.83
2023-04-09T09:46:21.262Z,54.11
2023-04-09T09:47:21.186Z,53.17
2023-04-09T09:48:21.191Z,53.65
2023-04-09T09:49:21.236Z,51.53
2023-04-09T09:50:21.182Z,49.93
2023-04-09T09:51:21.148Z,50.86
2023-04-09T09:52:21.145Z,51.50
2023-04-09T09:53:21.135Z,52.00
2023-04-09T09:54:21.136Z,50.46
2023-04-09T09:55:21.184Z,53.27
2023-04-09T09:56:21.191Z,53.55
2023-04-09T09:57:21.104Z,52.56
2023-04-09T09:58:21.094Z,52.28
2023-04-09T09:59:21.092Z,51.12
2023-04-09T10:00:22.712Z,52.44
2023-04-09T10:01:21.100Z,52.86
2023-04-09T10:02:21.198Z,54.46
2023-04-09T10:03:21.066Z,53.52
2023-04-09T10:04:21.075Z,51.78
2023-04-09T10:05:21.025Z,50.76
2023-04-09T10:06:20.992Z,50.89
2023-04-09T10:07:21.012Z,51.93
2023-04-09T10:08:20.970Z,51.85
2023-04-09T10:09:21.027Z,51.57
2023-04-09T10:10:20.974Z,51.59
2023-04-09T10:11:20.933Z,52.18
2023-04-09T10:12:20.950Z,50.56
2023-04-09T10:13:20.923Z,51.67
2023-04-09T10:14:20.912Z,51.98
2023-04-09T10:15:20.911Z,52.08
2023-04-09T10:16:20.943Z,52.05
2023-04-09T10:17:20.916Z,51.72
2023-04-09T10:18:20.942Z,52.71
2023-04-09T10:19:20.866Z,52.33
2023-04-09T10:20:20.891Z,51.95
2023-04-09T10:21:20.892Z,52.46
2023-04-09T10:22:20.846Z,51.32
2023-04-09T10:23:20.808Z,51.62
2023-04-09T10:24:20.848Z,53.02
2023-04-09T10:25:20.796Z,51.47
2023-04-09T10:26:20.806Z,50.46
2023-04-09T10:27:20.812Z,50.15
2023-04-09T10:28:20.775Z,52.28
2023-04-09T10:29:20.769Z,51.25
2023-04-09T10:30:20.797Z,49.62
2023-04-09T10:31:20.764Z,49.62
2023-04-09T10:32:20.726Z,49.14
2023-04-09T10:33:20.700Z,49.85
2023-04-09T10:34:20.710Z,49.55
2023-04-09T10:35:20.728Z,50.15
2023-04-09T10:36:20.713Z,49.42
2023-04-09T10:37:20.667Z,50.76
2023-04-09T10:38:20.730Z,49.75
2023-04-09T10:39:20.681Z,50.63
2023-04-09T10:40:20.654Z,51.14
2023-04-09T10:41:20.618Z,50.05
2023-04-09T10:42:20.648Z,50.79
2023-04-09T10:43:20.685Z,51.70
2023-04-09T10:44:20.638Z,49.98
2023-04-09T10:45:22.371Z,49.95
2023-04-09T10:46:20.614Z,51.47
2023-04-09T10:47:20.556Z,50.66
2023-04-09T10:48:20.587Z,51.39
2023-04-09T10:49:20.549Z,52.00
2023-04-09T10:50:20.532Z,51.29
2023-04-09T10:51:20.516Z,51.80
2023-04-09T10:52:20.519Z,53.04
2023-04-09T10:53:20.503Z,52.33
2023-04-09T10:54:20.530Z,53.37
2023-04-09T10:55:20.474Z,51.85
2023-04-09T10:56:20.468Z,53.39
2023-04-09T10:57:20.488Z,54.69
2023-04-09T10:58:20.452Z,53.58
2023-04-09T10:59:20.441Z,53.58
2023-04-09T11:00:20.452Z,53.17
2023-04-09T11:01:20.434Z,52.76
2023-04-09T11:02:20.562Z,51.65
2023-04-09T11:03:20.505Z,51.65
2023-04-09T11:04:20.423Z,52.05
2023-04-09T11:05:20.385Z,53.17
2023-04-09T11:06:20.372Z,52.36
2023-04-09T11:07:20.365Z,53.17
2023-04-09T11:08:20.339Z,54.08
2023-04-09T11:09:20.340Z,53.37
2023-04-09T11:10:20.388Z,52.46
2023-04-09T11:11:20.306Z,52.18
2023-04-09T11:12:20.286Z,52.99
2023-04-09T11:13:20.303Z,52.48
2023-04-09T11:14:20.292Z,52.30
2023-04-09T11:15:20.272Z,52.89
2023-04-09T11:16:22.899Z,53.80
2023-04-09T11:17:20.284Z,53.50
2023-04-09T11:18:20.246Z,52.69
2023-04-09T11:19:20.237Z,54.03
2023-04-09T11:20:20.204Z,54.51
2023-04-09T11:21:20.189Z,54.51
2023-04-09T11:22:20.180Z,53.30
2023-04-09T11:23:20.190Z,53.91
2023-04-09T11:24:20.180Z,52.79
2023-04-09T11:25:20.200Z,52.58
2023-04-09T11:26:20.165Z,53.30
2023-04-09T11:27:20.128Z,53.80
2023-04-09T11:28:20.132Z,52.89
2023-04-09T11:29:20.372Z,54.00
2023-04-09T11:30:20.093Z,53.14
2023-04-09T11:31:20.122Z,51.72
2023-04-09T11:32:20.095Z,52.31
2023-04-09T11:33:20.582Z,52.69
2023-04-09T11:34:20.075Z,51.75
2023-04-09T11:35:20.052Z,50.23
2023-04-09T11:36:20.065Z,51.35
2023-04-09T11:37:20.027Z,56.21
2023-04-09T11:38:20.040Z,52.33
2023-04-09T11:39:20.011Z,51.55
2023-04-09T11:40:20.030Z,51.25
2023-04-09T11:41:20.001Z,52.08
2023-04-09T11:42:19.960Z,52.56
2023-04-09T11:43:19.956Z,51.22
2023-04-09T11:44:19.950Z,52.03
2023-04-09T11:45:19.929Z,49.60
2023-04-09T11:46:19.972Z,50.31
2023-04-09T11:47:19.938Z,50.66
2023-04-09T11:48:19.953Z,51.70
2023-04-09T11:49:19.915Z,52.28
2023-04-09T11:50:19.886Z,52.15
2023-04-09T11:51:19.873Z,50.84
2023-04-09T11:52:19.858Z,51.04
2023-04-09T11:53:19.937Z,51.25
2023-04-09T11:54:19.890Z,52.97
2023-04-09T11:55:19.825Z,51.80
2023-04-09T11:56:19.813Z,53.12
2023-04-09T11:57:19.808Z,51.70
2023-04-09T11:58:19.831Z,51.52
2023-04-09T11:59:19.810Z,52.51
2023-04-09T12:00:19.801Z,53.22
2023-04-09T12:01:19.792Z,52.81
2023-04-09T12:02:19.903Z,51.90
2023-04-09T12:03:20.030Z,53.09
2023-04-09T12:04:19.913Z,52.26
2023-04-09T12:05:19.753Z,51.86
2023-04-09T12:06:19.726Z,49.52
2023-04-09T12:07:19.711Z,50.74
2023-04-09T12:08:19.700Z,51.14
2023-04-09T12:09:19.813Z,49.83
2023-04-09T12:10:19.719Z,50.54
2023-04-09T12:11:19.660Z,50.05
2023-04-09T12:12:19.661Z,50.79
2023-04-09T12:13:19.703Z,50.89
2023-04-09T12:14:19.628Z,50.99
2023-04-09T12:15:19.653Z,51.19
2023-04-09T12:16:19.669Z,50.89
2023-04-09T12:17:19.616Z,51.70
2023-04-09T12:18:19.617Z,50.13
2023-04-09T12:19:19.623Z,51.62
2023-04-09T12:20:19.573Z,51.35
2023-04-09T12:21:19.582Z,47.83
2023-04-09T12:22:19.542Z,48.28
2023-04-09T12:23:19.776Z,48.79
2023-04-09T12:24:19.527Z,48.59
2023-04-09T12:25:19.524Z,47.96
2023-04-09T12:26:19.555Z,47.75
2023-04-09T12:27:19.528Z,47.67
2023-04-09T12:28:20.056Z,49.60
2023-04-09T12:29:19.496Z,48.95
2023-04-09T12:30:19.497Z,48.16
2023-04-09T12:31:19.530Z,49.48
2023-04-09T12:32:19.524Z,48.36
2023-04-09T12:33:19.470Z,48.49
2023-04-09T12:34:19.414Z,49.11
2023-04-09T12:35:19.429Z,49.93
2023-04-09T12:36:19.402Z,50.51
2023-04-09T12:37:19.500Z,50.71
2023-04-09T12:38:19.423Z,48.99
2023-04-09T12:39:19.353Z,48.61
2023-04-09T12:40:19.408Z,50.34
2023-04-09T12:41:19.386Z,50.54
2023-04-09T12:42:19.334Z,49.52
2023-04-09T12:43:19.340Z,50.26
2023-04-09T12:44:19.313Z,49.27
2023-04-09T12:45:19.297Z,50.28
2023-04-09T12:46:19.312Z,50.18
2023-04-09T12:47:19.300Z,51.60
2023-04-09T12:48:19.280Z,51.39
2023-04-09T12:49:19.246Z,51.09
2023-04-09T12:50:19.246Z,51.19
2023-04-09T12:51:19.218Z,52.41
2023-04-09T12:52:19.221Z,52.51